Time;durP1;ratioP1;P1;durP2;ratioP2;P2;SDS_P1;SDS_P2;PMS_P1;PMS_P2;Temp;Humidity;BMP_temperature;BMP_pressure;BME280_temperature;BME280_humidity;BME280_pressure;Samples;Min_cycle;Max_cycle;Signal;HPM_P1;HPM_P2
2022/06/22 00:01:40;;;;;;;;;;;25.40;99.90;;;;;;5033074;28;19982;-81
2022/06/22 00:04:06;;;;;;;;;;;25.30;99.90;;;;;;5032165;28;19912;-80
2022/06/22 00:06:32;;;;;;;;;;;25.20;99.90;;;;;;5032770;28;20252;-79
2022/06/22 00:08:58;;;;;;;;;;;25.20;99.90;;;;;;5034053;28;19905;-79
2022/06/22 00:11:24;;;;;;;;;;;25.10;99.90;;;;;;5038366;28;19916;-83
2022/06/22 00:13:51;;;;;;;;;;;25.10;99.90;;;;;;5052355;28;19912;-84
2022/06/22 00:16:19;;;;;;;;;;;25.10;99.90;;;;;;5048650;28;19998;-84
2022/06/22 00:18:46;;;;;;;;;;;25.20;99.90;;;;;;5033686;28;20512;-78
2022/06/22 00:21:17;;;;;;;;;;;25.20;99.90;;;;;;5051591;28;19916;-79
2022/06/22 00:23:44;;;;;;;;;;;25.20;99.90;;;;;;5056375;28;19924;-80
2022/06/22 00:26:16;;;;;;;;;;;25.10;99.90;;;;;;5039887;28;19949;-80
2022/06/22 00:29:05;;;;;;;;;;;25.10;99.90;;;;;;5036183;28;19905;-81
2022/06/22 00:31:35;;;;;;;;;;;25.10;99.90;;;;;;5036348;28;19913;-85
2022/06/22 00:34:02;;;;;;;;;;;25.10;99.90;;;;;;5044905;28;19905;-83
2022/06/22 00:36:32;;;;;;;;;;;25.10;99.90;;;;;;5048133;28;19908;-80
2022/06/22 00:39:07;;;;;;;;;;;25.10;99.90;;;;;;5052985;28;19927;-79
2022/06/22 00:41:33;;;;;;;;;;;25.10;99.90;;;;;;5043679;28;19912;-85
2022/06/22 00:44:04;;;;;;;;;;;25.10;99.90;;;;;;5036506;28;19905;-81
2022/06/22 00:46:30;;;;;;;;;;;25.10;99.90;;;;;;5050193;28;19905;-79
2022/06/22 00:48:56;;;;;;;;;;;25.20;99.90;;;;;;5055972;28;19904;-80
2022/06/22 00:51:27;;;;;;;;;;;25.30;99.90;;;;;;5047467;28;19917;-83
2022/06/22 00:53:55;;;;;;;;;;;25.40;99.90;;;;;;5050066;28;20267;-81
2022/06/22 00:56:20;;;;;;;;;;;25.50;99.90;;;;;;5047350;28;19917;-81
2022/06/22 00:58:52;;;;;;;;;;;25.50;99.90;;;;;;5052169;28;19939;-82
2022/06/22 01:01:22;;;;;;;;;;;25.50;99.90;;;;;;5035799;28;19905;-80
2022/06/22 01:03:53;;;;;;;;;;;25.50;99.90;;;;;;5041302;28;19904;-79
2022/06/22 01:06:25;;;;;;;;;;;25.60;99.90;;;;;;5055177;28;19905;-79
2022/06/22 01:08:53;;;;;;;;;;;25.60;99.90;;;;;;5055058;28;19988;-78
2022/06/22 01:14:28;;;;;;;;;;;25.50;99.90;;;;;;5044345;28;20355;-81
2022/06/22 01:16:55;;;;;;;;;;;25.50;99.90;;;;;;5042210;28;19909;-81
2022/06/22 01:19:39;;;;;;;;;;;25.50;99.90;;;;;;5049484;28;19912;-80
2022/06/22 01:22:05;;;;;;;;;;;25.50;99.90;;;;;;5048146;28;19916;-78
2022/06/22 01:24:30;;;;;;;;;;;25.50;99.90;;;;;;5035319;28;19905;-79
2022/06/22 01:27:14;;;;;;;;;;;25.50;99.90;;;;;;5039854;28;20292;-80
2022/06/22 01:30:00;;;;;;;;;;;25.50;99.90;;;;;;5034866;28;19987;-83
2022/06/22 01:32:30;;;;;;;;;;;25.50;99.90;;;;;;5036735;28;20000;-83
2022/06/22 01:34:57;;;;;;;;;;;25.50;99.90;;;;;;5041673;28;20326;-79
2022/06/22 01:37:24;;;;;;;;;;;25.50;99.90;;;;;;5036547;28;20382;-79
2022/06/22 01:39:49;;;;;;;;;;;25.50;99.90;;;;;;5039500;28;19912;-84
2022/06/22 01:42:18;;;;;;;;;;;25.50;99.90;;;;;;5034947;28;19909;-83
2022/06/22 01:44:52;;;;;;;;;;;25.50;99.90;;;;;;5046880;28;19905;-81
2022/06/22 01:47:28;;;;;;;;;;;25.50;99.90;;;;;;5054694;28;19948;-82
2022/06/22 01:50:02;;;;;;;;;;;25.50;99.90;;;;;;5054873;28;20215;-79
2022/06/22 01:52:39;;;;;;;;;;;25.40;99.90;;;;;;5047098;28;20004;-81
2022/06/22 01:55:25;;;;;;;;;;;25.30;99.90;;;;;;5053076;28;20274;-83
2022/06/22 01:57:56;;;;;;;;;;;25.10;99.90;;;;;;5041022;28;20008;-79
2022/06/22 02:00:21;;;;;;;;;;;25.00;99.90;;;;;;5045833;28;19944;-78
2022/06/22 02:02:51;;;;;;;;;;;24.90;99.90;;;;;;5043374;28;19960;-83
2022/06/22 02:05:21;;;;;;;;;;;24.70;99.90;;;;;;5034552;28;20363;-79
2022/06/22 02:07:52;;;;;;;;;;;24.60;99.90;;;;;;5035229;28;19905;-80
2022/06/22 02:10:31;;;;;;;;;;;24.60;99.90;;;;;;5049402;28;19914;-83
2022/06/22 02:13:16;;;;;;;;;;;24.50;99.90;;;;;;5042848;28;19908;-78
2022/06/22 02:15:51;;;;;;;;;;;24.40;99.90;;;;;;5042930;28;20000;-79
2022/06/22 02:18:21;;;;;;;;;;;24.30;99.90;;;;;;5045971;28;19947;-80
2022/06/22 02:20:47;;;;;;;;;;;24.20;99.90;;;;;;5042724;28;19913;-78
2022/06/22 02:23:13;;;;;;;;;;;24.30;99.90;;;;;;5054130;28;19908;-78
2022/06/22 02:25:42;;;;;;;;;;;24.20;99.90;;;;;;5053817;28;19967;-80
2022/06/22 02:28:08;;;;;;;;;;;24.20;99.90;;;;;;5054208;28;19911;-78
2022/06/22 02:30:34;;;;;;;;;;;24.10;99.90;;;;;;5052460;28;19916;-79
2022/06/22 02:33:00;;;;;;;;;;;24.10;99.90;;;;;;5050118;28;19905;-80
2022/06/22 02:35:26;;;;;;;;;;;24.10;99.90;;;;;;5035654;28;19909;-77
2022/06/22 02:38:02;;;;;;;;;;;24.00;99.90;;;;;;5046462;28;20291;-79
2022/06/22 02:40:29;;;;;;;;;;;24.00;99.90;;;;;;5053348;28;20298;-77
2022/06/22 02:45:41;;;;;;;;;;;23.90;99.90;;;;;;5053644;28;19912;-77
2022/06/22 02:48:24;;;;;;;;;;;24.00;99.90;;;;;;5053632;28;19912;-79
2022/06/22 02:50:54;;;;;;;;;;;23.90;99.90;;;;;;5051059;28;19916;-78
2022/06/22 02:53:23;;;;;;;;;;;23.90;99.90;;;;;;5052446;28;19905;-77
2022/06/22 02:55:50;;;;;;;;;;;23.90;99.90;;;;;;4983562;28;20278;-80
2022/06/22 02:58:22;;;;;;;;;;;23.90;99.90;;;;;;5046898;28;19916;-85
2022/06/22 03:00:47;;;;;;;;;;;23.90;99.90;;;;;;5049858;28;19927;-77
2022/06/22 03:03:14;;;;;;;;;;;23.90;99.90;;;;;;5036074;28;20423;-83
2022/06/22 03:05:41;;;;;;;;;;;23.80;99.90;;;;;;5037376;28;19912;-79
2022/06/22 03:08:08;;;;;;;;;;;23.80;99.90;;;;;;5053603;28;19909;-80
2022/06/22 03:10:39;;;;;;;;;;;23.80;99.90;;;;;;5053143;28;19915;-79
2022/06/22 03:13:05;;;;;;;;;;;23.80;99.90;;;;;;5040766;28;19912;-77
2022/06/22 03:15:33;;;;;;;;;;;23.80;99.90;;;;;;5049374;28;19908;-79
2022/06/22 03:17:59;;;;;;;;;;;23.70;99.90;;;;;;5037034;28;20399;-78
2022/06/22 03:20:27;;;;;;;;;;;23.70;99.90;;;;;;5047724;28;19916;-78
2022/06/22 03:22:55;;;;;;;;;;;23.70;99.90;;;;;;5033168;28;20462;-77
2022/06/22 03:25:30;;;;;;;;;;;23.60;99.90;;;;;;5052667;28;19912;-76
2022/06/22 03:28:01;;;;;;;;;;;23.60;99.90;;;;;;5036926;28;20671;-79
2022/06/22 03:30:29;;;;;;;;;;;23.50;99.90;;;;;;5032957;28;19913;-78
2022/06/22 03:33:00;;;;;;;;;;;23.50;99.90;;;;;;5032908;28;19905;-84
2022/06/22 03:36:04;;;;;;;;;;;23.50;99.90;;;;;;5040667;28;20358;-76
2022/06/22 03:38:34;;;;;;;;;;;23.50;99.90;;;;;;5030321;28;19905;-77
2022/06/22 03:41:03;;;;;;;;;;;23.60;99.90;;;;;;5049070;28;19909;-79
2022/06/22 03:43:33;;;;;;;;;;;23.70;99.90;;;;;;5041648;28;19912;-76
2022/06/22 03:46:08;;;;;;;;;;;23.80;99.90;;;;;;5034420;28;19911;-76
2022/06/22 03:48:57;;;;;;;;;;;23.80;99.90;;;;;;5052487;28;19944;-76
2022/06/22 03:51:24;;;;;;;;;;;23.90;99.90;;;;;;5052136;28;19913;-80
2022/06/22 03:53:55;;;;;;;;;;;24.00;99.90;;;;;;5058091;28;19905;-78
2022/06/22 03:56:24;;;;;;;;;;;24.00;99.90;;;;;;5047799;28;19917;-83
2022/06/22 03:58:52;;;;;;;;;;;23.90;99.90;;;;;;5059105;28;19904;-77
2022/06/22 04:01:18;;;;;;;;;;;23.90;99.90;;;;;;5050578;28;19916;-77
2022/06/22 04:03:44;;;;;;;;;;;23.90;99.90;;;;;;5047021;28;19959;-76
2022/06/22 04:06:16;;;;;;;;;;;23.90;99.90;;;;;;5051436;28;20258;-81
2022/06/22 04:08:41;;;;;;;;;;;23.90;99.90;;;;;;5058665;28;19909;-80
2022/06/22 04:11:13;;;;;;;;;;;24.00;99.90;;;;;;5045987;28;19966;-78
2022/06/22 04:13:44;;;;;;;;;;;24.10;99.90;;;;;;5039033;28;19916;-77
2022/06/22 04:16:16;;;;;;;;;;;24.10;99.90;;;;;;5042138;28;20418;-77
2022/06/22 04:18:54;;;;;;;;;;;24.10;99.90;;;;;;5051175;28;19908;-81
2022/06/22 04:21:22;;;;;;;;;;;24.20;99.90;;;;;;5056730;28;20313;-76
2022/06/22 04:23:51;;;;;;;;;;;24.20;99.90;;;;;;5048163;28;19916;-81
2022/06/22 04:26:25;;;;;;;;;;;24.20;99.90;;;;;;5048404;28;19905;-80
2022/06/22 04:28:59;;;;;;;;;;;24.20;99.90;;;;;;5046735;28;19912;-77
2022/06/22 04:31:33;;;;;;;;;;;24.30;99.90;;;;;;5058642;28;19935;-76
2022/06/22 04:34:02;;;;;;;;;;;24.30;99.90;;;;;;5058858;28;19905;-77
2022/06/22 04:36:33;;;;;;;;;;;24.50;99.90;;;;;;5050730;28;20298;-84
2022/06/22 04:39:01;;;;;;;;;;;24.60;99.90;;;;;;5052410;28;20010;-82
2022/06/22 04:41:33;;;;;;;;;;;24.80;99.90;;;;;;5054658;28;19905;-82
2022/06/22 04:44:01;;;;;;;;;;;25.00;99.90;;;;;;5058913;28;19909;-78
2022/06/22 04:46:34;;;;;;;;;;;25.10;99.90;;;;;;5047964;28;19951;-77
2022/06/22 04:49:08;;;;;;;;;;;25.30;99.90;;;;;;5037490;28;20278;-79
2022/06/22 04:51:35;;;;;;;;;;;25.50;99.90;;;;;;5056211;28;19955;-78
2022/06/22 04:54:00;;;;;;;;;;;25.70;99.90;;;;;;5057351;28;19999;-77
2022/06/22 04:56:36;;;;;;;;;;;26.00;99.90;;;;;;5054985;28;20001;-77
2022/06/22 04:59:03;;;;;;;;;;;26.20;99.90;;;;;;5038518;28;19905;-77
2022/06/22 05:01:30;;;;;;;;;;;26.80;99.90;;;;;;5038982;28;19932;-82
2022/06/22 05:03:57;;;;;;;;;;;27.30;99.90;;;;;;5037138;28;19917;-76
2022/06/22 05:06:26;;;;;;;;;;;27.90;99.90;;;;;;5035677;28;19905;-77
2022/06/22 05:08:58;;;;;;;;;;;28.40;99.90;;;;;;5035390;28;19992;-76
2022/06/22 05:11:30;;;;;;;;;;;28.70;99.90;;;;;;5035158;28;19959;-76
2022/06/22 05:13:58;;;;;;;;;;;29.10;99.90;;;;;;5034044;28;20283;-77
2022/06/22 05:16:26;;;;;;;;;;;29.50;99.90;;;;;;5034586;28;19905;-77
2022/06/22 05:18:52;;;;;;;;;;;29.90;99.90;;;;;;5034164;28;19909;-81
2022/06/22 05:21:27;;;;;;;;;;;30.20;99.90;;;;;;5034035;28;19959;-80
2022/06/22 05:23:54;;;;;;;;;;;30.40;99.90;;;;;;5034828;28;20376;-78
2022/06/22 05:26:21;;;;;;;;;;;30.70;99.90;;;;;;5034716;28;19905;-78
2022/06/22 05:28:58;;;;;;;;;;;30.90;99.90;;;;;;5035236;28;20291;-78
2022/06/22 05:31:27;;;;;;;;;;;31.10;99.90;;;;;;5034750;28;20454;-77
2022/06/22 05:33:55;;;;;;;;;;;31.20;99.90;;;;;;5034657;28;19912;-77
2022/06/22 05:36:22;;;;;;;;;;;31.60;99.90;;;;;;5034450;28;19906;-79
2022/06/22 05:38:49;;;;;;;;;;;31.90;99.90;;;;;;5035044;28;20199;-81
2022/06/22 05:41:16;;;;;;;;;;;32.20;99.90;;;;;;5035348;28;19905;-78
2022/06/22 05:43:42;;;;;;;;;;;32.30;99.90;;;;;;5035011;28;19940;-80
2022/06/22 05:46:09;;;;;;;;;;;32.40;99.90;;;;;;5035091;28;19960;-79
2022/06/22 05:48:38;;;;;;;;;;;32.50;99.90;;;;;;5034390;28;20433;-82
2022/06/22 05:51:06;;;;;;;;;;;32.70;99.90;;;;;;5034960;28;19913;-82
2022/06/22 05:53:34;;;;;;;;;;;32.80;99.90;;;;;;5035016;28;19912;-83
2022/06/22 05:56:18;;;;;;;;;;;33.10;99.90;;;;;;5034794;28;19917;-77
